createdAt,value
2019-05-03T00:02:27.205Z,7.63
2019-05-03T00:05:06.445Z,7.17
2019-05-03T00:07:34.879Z,7.27
2019-05-03T00:10:03.894Z,6.80
2019-05-03T00:12:32.757Z,7.77
2019-05-03T00:15:09.839Z,8.00
2019-05-03T00:17:38.179Z,7.97
2019-05-03T00:20:06.612Z,6.50
2019-05-03T00:22:34.972Z,7.00
2019-05-03T00:25:08.118Z,8.80
2019-05-03T00:27:33.635Z,7.80
2019-05-03T00:30:02.876Z,7.73
2019-05-03T00:32:32.078Z,7.50
2019-05-03T00:35:03.267Z,7.67
2019-05-03T00:37:33.283Z,7.53
2019-05-03T00:40:06.311Z,7.90
2019-05-03T00:42:34.640Z,7.20
2019-05-03T00:45:03.746Z,7.70
2019-05-03T00:47:32.889Z,7.07
2019-05-03T00:50:02.785Z,7.90
2019-05-03T00:52:31.919Z,6.67
2019-05-03T00:55:02.210Z,7.27
2019-05-03T00:57:32.253Z,7.00
2019-05-03T01:00:02.154Z,6.80
2019-05-03T01:02:31.844Z,6.87
2019-05-03T01:05:02.655Z,7.37
2019-05-03T01:07:31.796Z,7.40
2019-05-03T01:10:02.432Z,7.20
2019-05-03T01:12:32.432Z,7.87
2019-05-03T01:15:02.647Z,7.47
2019-05-03T01:17:31.778Z,7.67
2019-05-03T01:20:00.134Z,7.00
2019-05-03T01:22:28.625Z,7.23
2019-05-03T01:24:56.967Z,7.70
2019-05-03T01:27:25.340Z,7.13
2019-05-03T01:29:53.755Z,6.80
2019-05-03T01:32:22.343Z,7.23
2019-05-03T01:34:52.381Z,7.20
2019-05-03T01:37:22.640Z,7.40
2019-05-03T01:39:52.583Z,7.73
2019-05-03T01:42:22.637Z,8.60
2019-05-03T01:44:52.207Z,9.10
2019-05-03T01:47:27.958Z,8.07
2019-05-03T01:50:02.883Z,6.50
2019-05-03T01:52:34.424Z,6.93
2019-05-03T01:55:04.165Z,8.30
2019-05-03T01:57:32.590Z,7.17
2019-05-03T02:00:02.767Z,7.30
2019-05-03T02:02:45.674Z,7.80
2019-05-03T02:05:39.502Z,7.63
2019-05-03T02:08:08.961Z,6.80
2019-05-03T02:10:37.316Z,7.60
2019-05-03T02:13:05.743Z,7.17
2019-05-03T02:15:34.339Z,7.20
2019-05-03T02:18:02.825Z,6.10
2019-05-03T02:20:32.400Z,7.13
2019-05-03T02:23:02.798Z,7.80
2019-05-03T02:25:32.351Z,6.97
2019-05-03T02:28:01.941Z,6.27
2019-05-03T02:30:33.263Z,6.30
2019-05-03T02:33:03.725Z,6.20
2019-05-03T02:35:33.179Z,6.30
2019-05-03T02:38:03.459Z,6.47
2019-05-03T02:40:33.605Z,7.27
2019-05-03T02:43:26.061Z,6.80
2019-05-03T02:46:01.237Z,6.13
2019-05-03T02:48:36.435Z,6.80
2019-05-03T02:51:06.552Z,7.23
2019-05-03T02:53:36.037Z,7.03
2019-05-03T02:56:15.219Z,6.80
2019-05-03T02:58:35.856Z,7.07
2019-05-03T03:01:06.527Z,5.80
2019-05-03T03:03:36.342Z,6.40
2019-05-03T03:06:06.708Z,6.67
2019-05-03T03:08:37.054Z,6.83
2019-05-03T03:11:06.926Z,6.83
2019-05-03T03:13:36.804Z,6.60
2019-05-03T03:16:06.742Z,7.40
2019-05-03T03:18:37.163Z,7.00
2019-05-03T03:21:07.197Z,7.47
2019-05-03T03:23:39.845Z,6.57
2019-05-03T03:26:09.455Z,6.57
2019-05-03T03:28:37.972Z,6.40
2019-05-03T03:31:22.744Z,6.70
2019-05-03T03:33:51.108Z,7.57
2019-05-03T03:36:53.274Z,7.20
2019-05-03T03:38:49.923Z,6.80
2019-05-03T03:41:19.459Z,5.90
2019-05-03T03:43:49.603Z,6.13
2019-05-03T03:46:19.476Z,5.67
2019-05-03T03:48:47.835Z,6.03
2019-05-03T03:51:17.731Z,5.03
2019-05-03T03:53:47.581Z,4.63
2019-05-03T03:56:16.196Z,6.30
2019-05-03T03:58:46.385Z,5.23
2019-05-03T04:01:15.718Z,4.30
2019-05-03T04:03:45.957Z,5.40
2019-05-03T04:06:15.407Z,4.80
2019-05-03T04:08:45.324Z,6.03
2019-05-03T04:11:15.558Z,5.70
2019-05-03T04:13:45.413Z,4.37
2019-05-03T04:16:31.658Z,3.73
2019-05-03T04:19:14.108Z,3.63
2019-05-03T04:21:42.438Z,4.87
2019-05-03T04:24:10.900Z,4.50
2019-05-03T04:26:39.311Z,5.10
2019-05-03T04:29:07.745Z,5.37
2019-05-03T04:31:36.755Z,4.43
2019-05-03T04:34:05.675Z,4.30
2019-05-03T04:36:35.763Z,4.27
2019-05-03T04:39:05.545Z,4.43
2019-05-03T04:41:35.715Z,4.60
2019-05-03T04:44:06.277Z,3.90
2019-05-03T04:46:35.843Z,3.70
2019-05-03T04:49:05.757Z,4.00
2019-05-03T04:51:35.111Z,3.60
2019-05-03T04:54:22.145Z,6.40
2019-05-03T04:56:50.482Z,7.43
2019-05-03T04:59:19.168Z,6.90
2019-05-03T05:01:47.572Z,4.33
2019-05-03T05:04:16.279Z,3.60
2019-05-03T05:06:45.103Z,3.80
2019-05-03T05:09:15.515Z,4.07
2019-05-03T05:11:45.824Z,3.50
2019-05-03T05:14:15.278Z,3.30
2019-05-03T05:16:46.255Z,3.60
2019-05-03T05:19:16.603Z,3.97
2019-05-03T05:21:48.411Z,4.30
2019-05-03T05:24:17.131Z,3.43
2019-05-03T05:26:51.259Z,3.73
2019-05-03T05:29:21.750Z,3.20
2019-05-03T05:31:50.085Z,3.70
2019-05-03T05:34:18.751Z,3.53
2019-05-03T05:36:47.095Z,3.50
2019-05-03T05:39:18.712Z,4.80
2019-05-03T05:41:47.686Z,3.20
2019-05-03T05:44:16.039Z,3.93
2019-05-03T05:47:04.683Z,3.40
2019-05-03T05:49:44.389Z,3.57
2019-05-03T05:52:12.918Z,3.43
2019-05-03T05:54:42.940Z,3.10
2019-05-03T05:57:29.354Z,4.10
2019-05-03T06:00:00.519Z,2.93
2019-05-03T06:02:28.868Z,3.23
2019-05-03T06:04:57.218Z,2.83
2019-05-03T06:07:35.122Z,3.80
2019-05-03T06:10:16.550Z,3.20
2019-05-03T06:12:59.571Z,3.30
2019-05-03T06:15:45.851Z,2.80
2019-05-03T06:18:19.385Z,2.90
2019-05-03T06:21:04.650Z,3.23
2019-05-03T06:23:37.808Z,3.37
2019-05-03T06:26:25.431Z,2.93
2019-05-03T06:28:54.484Z,3.20
2019-05-03T06:31:30.119Z,2.37
2019-05-03T06:33:58.811Z,2.90
2019-05-03T06:36:27.176Z,3.47
2019-05-03T06:38:55.870Z,3.13
2019-05-03T06:41:25.039Z,3.03
2019-05-03T06:43:55.187Z,2.50
2019-05-03T06:46:45.185Z,2.23
2019-05-03T06:49:15.174Z,2.27
2019-05-03T06:51:45.667Z,3.90
2019-05-03T06:54:15.791Z,2.70
2019-05-03T06:56:45.221Z,2.50
2019-05-03T06:59:25.930Z,2.30
2019-05-03T07:02:05.599Z,2.57
2019-05-03T07:04:37.811Z,2.27
2019-05-03T07:07:28.546Z,2.87
2019-05-03T07:10:05.506Z,2.53
2019-05-03T07:12:51.950Z,1.80
2019-05-03T07:15:20.303Z,2.03
2019-05-03T07:17:48.640Z,2.10
2019-05-03T07:20:16.994Z,3.13
2019-05-03T07:22:45.333Z,2.27
2019-05-03T07:25:14.914Z,2.43
2019-05-03T07:27:45.217Z,3.73
2019-05-03T07:30:15.625Z,2.47
2019-05-03T07:32:45.683Z,2.47
2019-05-03T07:35:14.809Z,2.97
2019-05-03T07:37:45.103Z,2.80
2019-05-03T07:40:14.831Z,2.53
2019-05-03T07:42:44.878Z,2.70
2019-05-03T07:45:14.895Z,2.90
2019-05-03T07:47:45.115Z,2.70
2019-05-03T07:50:15.269Z,3.10
2019-05-03T07:52:45.117Z,2.47
2019-05-03T07:55:14.984Z,2.13
2019-05-03T07:57:48.706Z,1.93
2019-05-03T08:00:20.328Z,2.47
2019-05-03T08:02:48.658Z,2.40
2019-05-03T08:05:17.282Z,2.03
2019-05-03T08:07:46.291Z,2.77
2019-05-03T08:10:15.395Z,1.97
2019-05-03T08:12:45.215Z,2.37
2019-05-03T08:15:15.578Z,1.90
2019-05-03T08:17:45.036Z,2.53
2019-05-03T08:20:16.647Z,1.93
2019-05-03T08:22:45.279Z,2.33
2019-05-03T08:25:14.659Z,2.53
2019-05-03T08:27:44.633Z,1.87
2019-05-03T08:30:16.345Z,2.23
2019-05-03T08:33:05.548Z,2.17
2019-05-03T08:35:40.011Z,2.47
2019-05-03T08:38:08.355Z,3.53
2019-05-03T08:40:45.515Z,2.67
2019-05-03T08:43:15.588Z,3.23
2019-05-03T08:45:44.717Z,2.23
2019-05-03T08:48:15.228Z,2.30
2019-05-03T08:50:45.137Z,2.03
2019-05-03T08:53:15.625Z,2.13
2019-05-03T08:55:44.938Z,2.40
2019-05-03T08:58:15.352Z,2.50
2019-05-03T09:00:45.414Z,2.30
2019-05-03T09:03:14.503Z,2.17
2019-05-03T09:05:45.408Z,3.23
2019-05-03T09:08:15.274Z,3.13
2019-05-03T09:10:49.920Z,2.00
2019-05-03T09:13:19.939Z,2.53
2019-05-03T09:15:48.947Z,1.77
2019-05-03T09:18:17.682Z,1.80
2019-05-03T09:20:46.559Z,2.40
2019-05-03T09:23:15.030Z,2.73
2019-05-03T09:25:45.820Z,2.53
2019-05-03T09:28:15.035Z,2.03
2019-05-03T09:30:44.761Z,2.07
2019-05-03T09:33:15.296Z,1.87
2019-05-03T09:35:45.661Z,2.60
2019-05-03T09:38:15.030Z,2.50
2019-05-03T09:40:45.425Z,2.57
2019-05-03T09:43:15.074Z,3.60
2019-05-03T09:45:45.155Z,1.93
2019-05-03T09:48:15.054Z,2.03
2019-05-03T09:50:45.112Z,2.07
2019-05-03T09:53:15.266Z,2.13
2019-05-03T09:55:44.807Z,2.00
2019-05-03T09:58:16.157Z,2.47
2019-05-03T10:00:45.270Z,2.33
2019-05-03T10:03:13.615Z,2.03
2019-05-03T10:05:41.952Z,2.20
2019-05-03T10:08:10.295Z,2.37
2019-05-03T10:10:57.031Z,2.43
2019-05-03T10:13:27.126Z,2.53
2019-05-03T10:15:55.454Z,2.40
2019-05-03T10:18:25.484Z,2.10
2019-05-03T10:20:56.188Z,2.03
2019-05-03T10:23:38.346Z,2.07
2019-05-03T10:26:06.787Z,2.30
2019-05-03T10:28:35.277Z,1.90
2019-05-03T10:31:07.514Z,2.43
2019-05-03T10:33:40.123Z,2.20
2019-05-03T10:36:08.478Z,2.23
2019-05-03T10:38:37.242Z,2.33
2019-05-03T10:41:05.920Z,2.87
2019-05-03T10:43:35.500Z,2.10
2019-05-03T10:46:05.179Z,2.70
2019-05-03T10:48:35.556Z,2.40
2019-05-03T10:51:04.757Z,2.50
2019-05-03T10:53:36.810Z,2.57
2019-05-03T10:56:22.997Z,2.33
2019-05-03T10:58:54.984Z,2.03
2019-05-03T11:01:31.995Z,3.70
2019-05-03T11:04:00.337Z,3.70
2019-05-03T11:06:28.671Z,2.27
2019-05-03T11:08:57.051Z,1.93
2019-05-03T11:11:25.911Z,1.60
2019-05-03T11:13:54.811Z,1.77
2019-05-03T11:16:25.144Z,1.77
2019-05-03T11:18:54.908Z,2.93
2019-05-03T11:21:28.854Z,1.83
2019-05-03T11:23:54.537Z,1.40
2019-05-03T11:26:25.136Z,2.17
2019-05-03T11:28:55.404Z,1.87
2019-05-03T11:31:41.999Z,1.90
2019-05-03T11:34:12.024Z,1.67
2019-05-03T11:36:59.568Z,2.20
2019-05-03T11:39:27.898Z,2.20
2019-05-03T11:41:58.135Z,2.30
2019-05-03T11:44:37.642Z,2.30
2019-05-03T11:47:06.059Z,2.07
2019-05-03T11:49:34.836Z,1.90
2019-05-03T11:52:06.274Z,2.03
2019-05-03T11:54:35.905Z,2.10
2019-05-03T11:57:08.183Z,2.13
2019-05-03T11:59:36.679Z,2.20
2019-05-03T12:02:19.274Z,2.60
2019-05-03T12:04:47.656Z,2.70
2019-05-03T12:07:38.926Z,2.03
2019-05-03T12:10:02.067Z,2.20
2019-05-03T12:12:35.250Z,2.20
2019-05-03T12:15:04.346Z,1.90
2019-05-03T12:17:36.371Z,2.33
2019-05-03T12:20:07.985Z,2.53
2019-05-03T12:22:36.072Z,2.50
2019-05-03T12:25:10.164Z,3.33
2019-05-03T12:27:35.290Z,2.13
2019-05-03T12:30:05.010Z,2.03
2019-05-03T12:32:34.548Z,2.10
2019-05-03T12:35:03.163Z,2.57
2019-05-03T12:37:31.591Z,2.20
2019-05-03T12:40:00.463Z,2.13
2019-05-03T12:42:28.797Z,1.90
2019-05-03T12:44:57.216Z,2.23
2019-05-03T12:47:25.615Z,2.77
2019-05-03T12:49:55.881Z,3.20
2019-05-03T12:52:26.377Z,2.70
2019-05-03T12:54:55.216Z,2.67
2019-05-03T12:57:24.876Z,2.50
2019-05-03T13:00:18.830Z,2.90
2019-05-03T13:03:04.579Z,3.13
2019-05-03T13:05:33.094Z,2.57
2019-05-03T13:08:22.881Z,2.27
2019-05-03T13:10:51.295Z,3.23
2019-05-03T13:13:19.957Z,2.60
2019-05-03T13:15:48.315Z,2.77
2019-05-03T13:18:16.656Z,2.37
2019-05-03T13:20:45.418Z,2.40
2019-05-03T13:23:13.913Z,3.93
2019-05-03T13:25:42.254Z,3.20
2019-05-03T13:28:10.882Z,2.33
2019-05-03T13:30:39.391Z,2.83
2019-05-03T13:33:07.744Z,2.00
2019-05-03T13:35:36.403Z,2.53
2019-05-03T13:38:04.734Z,2.63
2019-05-03T13:40:35.695Z,1.80
2019-05-03T13:43:06.393Z,2.37
2019-05-03T13:45:35.389Z,2.27
2019-05-03T13:48:05.018Z,2.00
2019-05-03T13:50:35.154Z,3.27
2019-05-03T13:53:04.828Z,2.77
2019-05-03T13:55:35.331Z,2.80
2019-05-03T13:58:05.208Z,2.60
2019-05-03T14:00:34.574Z,2.57
2019-05-03T14:03:04.551Z,2.07
2019-05-03T14:05:35.184Z,2.30
2019-05-03T14:08:05.006Z,2.70
2019-05-03T14:10:35.839Z,2.23
2019-05-03T14:13:05.590Z,2.70
2019-05-03T14:15:34.855Z,3.10
2019-05-03T14:18:05.827Z,2.70
2019-05-03T14:20:59.004Z,2.07
2019-05-03T14:23:27.640Z,2.27
2019-05-03T14:25:56.075Z,2.50
2019-05-03T14:28:25.271Z,2.63
2019-05-03T14:30:54.775Z,2.23
2019-05-03T14:33:24.893Z,2.43
2019-05-03T14:35:54.730Z,2.10
2019-05-03T14:38:25.429Z,2.40
2019-05-03T14:40:55.161Z,2.60
2019-05-03T14:43:24.860Z,2.37
2019-05-03T14:45:55.043Z,2.63
2019-05-03T14:48:24.894Z,2.60
2019-05-03T14:50:57.109Z,2.40
2019-05-03T14:53:25.462Z,2.17
2019-05-03T14:55:59.836Z,2.37
2019-05-03T14:58:45.696Z,1.67
2019-05-03T15:01:24.817Z,1.80
2019-05-03T15:03:54.992Z,1.83
2019-05-03T15:06:24.953Z,2.00
2019-05-03T15:08:54.729Z,2.00
2019-05-03T15:11:23.242Z,2.03
2019-05-03T15:13:52.068Z,2.20
2019-05-03T15:16:20.706Z,2.60
2019-05-03T15:18:49.073Z,2.10
2019-05-03T15:21:17.450Z,2.20
2019-05-03T15:23:45.803Z,2.67
2019-05-03T15:26:14.222Z,2.43
2019-05-03T15:28:44.762Z,2.17
2019-05-03T15:31:13.032Z,2.37
2019-05-03T15:33:41.358Z,1.90
2019-05-03T15:36:09.764Z,2.93
2019-05-03T15:38:38.155Z,3.77
2019-05-03T15:41:06.818Z,2.27
2019-05-03T15:44:05.263Z,1.93
2019-05-03T15:46:51.122Z,2.30
2019-05-03T15:49:19.498Z,2.13
2019-05-03T15:51:47.948Z,2.73
2019-05-03T15:54:16.303Z,1.93
2019-05-03T15:56:44.939Z,2.43
2019-05-03T15:59:14.991Z,2.30
2019-05-03T16:01:43.819Z,2.00
2019-05-03T16:04:14.203Z,2.80
2019-05-03T16:06:42.236Z,2.30
2019-05-03T16:09:10.649Z,2.87
2019-05-03T16:11:39.006Z,2.33
2019-05-03T16:14:35.023Z,2.20
2019-05-03T16:17:04.479Z,2.60
2019-05-03T16:19:32.929Z,1.90
2019-05-03T16:22:01.300Z,3.20
2019-05-03T16:24:29.635Z,2.43
2019-05-03T16:27:19.242Z,2.90
2019-05-03T16:29:47.992Z,1.97
2019-05-03T16:32:17.036Z,2.47
2019-05-03T16:34:45.392Z,2.30
2019-05-03T16:37:14.895Z,2.33
2019-05-03T16:39:45.420Z,2.27
2019-05-03T16:42:15.487Z,2.43
2019-05-03T16:44:44.385Z,2.53
2019-05-03T16:47:12.944Z,2.17
2019-05-03T16:49:41.294Z,2.30
2019-05-03T16:52:10.036Z,2.37
2019-05-03T16:54:38.390Z,2.03
2019-05-03T16:57:06.730Z,2.10
2019-05-03T16:59:35.325Z,2.70
2019-05-03T17:02:05.663Z,3.07
2019-05-03T17:04:40.405Z,2.13
2019-05-03T17:07:16.626Z,2.53
2019-05-03T17:09:48.688Z,3.07
2019-05-03T17:12:25.520Z,2.43
2019-05-03T17:14:54.711Z,1.77
2019-05-03T17:17:25.218Z,2.17
2019-05-03T17:19:55.087Z,2.30
2019-05-03T17:22:25.174Z,2.03
2019-05-03T17:24:54.161Z,2.20
2019-05-03T17:27:22.593Z,2.53
2019-05-03T17:29:51.230Z,2.67
2019-05-03T17:32:19.622Z,2.60
2019-05-03T17:34:48.067Z,4.10
2019-05-03T17:37:16.879Z,2.43
2019-05-03T17:40:16.627Z,2.07
2019-05-03T17:43:02.260Z,1.83
2019-05-03T17:45:35.131Z,2.43
2019-05-03T17:48:04.574Z,2.03
2019-05-03T17:50:34.751Z,2.37
2019-05-03T17:53:15.278Z,2.70
2019-05-03T17:55:49.696Z,2.50
2019-05-03T17:58:44.360Z,2.63
2019-05-03T18:01:22.608Z,2.47
2019-05-03T18:04:04.003Z,2.47
2019-05-03T18:06:25.855Z,2.83
2019-05-03T18:09:04.418Z,2.30
2019-05-03T18:11:37.414Z,3.03
2019-05-03T18:14:05.831Z,2.90
2019-05-03T18:16:35.023Z,2.83
2019-05-03T18:19:05.216Z,2.20
2019-05-03T18:21:33.795Z,2.37
2019-05-03T18:24:02.522Z,3.07
2019-05-03T18:26:30.950Z,2.33
2019-05-03T18:28:59.750Z,2.30
2019-05-03T18:31:28.443Z,2.63
2019-05-03T18:33:56.874Z,2.70
2019-05-03T18:36:25.380Z,2.63
2019-05-03T18:38:55.214Z,2.70
2019-05-03T18:41:25.520Z,2.53
2019-05-03T18:44:14.773Z,2.90
2019-05-03T18:46:47.682Z,2.50
2019-05-03T18:49:16.371Z,2.00
2019-05-03T18:51:44.973Z,2.50
2019-05-03T18:54:15.503Z,2.60
2019-05-03T18:56:43.949Z,2.50
2019-05-03T18:59:14.510Z,2.20
2019-05-03T19:01:42.518Z,3.53
2019-05-03T19:04:39.449Z,2.70
2019-05-03T19:07:14.993Z,3.50
2019-05-03T19:10:00.815Z,2.70
2019-05-03T19:12:37.247Z,3.87
2019-05-03T19:15:05.872Z,3.17
2019-05-03T19:17:42.386Z,2.70
2019-05-03T19:20:16.255Z,3.30
2019-05-03T19:22:44.698Z,3.10
2019-05-03T19:25:14.851Z,3.07
2019-05-03T19:27:45.119Z,3.73
2019-05-03T19:30:14.891Z,3.87
2019-05-03T19:32:45.007Z,3.00
2019-05-03T19:35:15.558Z,3.50
2019-05-03T19:37:46.397Z,3.40
2019-05-03T19:40:14.648Z,4.50
2019-05-03T19:42:44.726Z,4.40
2019-05-03T19:45:15.202Z,3.90
2019-05-03T19:47:44.787Z,4.43
2019-05-03T19:50:15.545Z,4.57
2019-05-03T19:53:02.037Z,3.50
2019-05-03T19:55:30.628Z,3.60
2019-05-03T19:57:59.205Z,4.67
2019-05-03T20:00:34.824Z,4.53
2019-05-03T20:03:08.955Z,3.03
2019-05-03T20:05:44.906Z,3.27
2019-05-03T20:08:41.993Z,3.40
2019-05-03T20:11:17.413Z,3.17
2019-05-03T20:13:46.633Z,3.70
2019-05-03T20:16:15.712Z,3.00
2019-05-03T20:18:45.389Z,3.30
2019-05-03T20:21:14.904Z,3.07
2019-05-03T20:23:46.649Z,3.40
2019-05-03T20:26:14.879Z,3.50
2019-05-03T20:28:44.923Z,3.20
2019-05-03T20:31:13.753Z,3.83
2019-05-03T20:33:42.748Z,3.43
2019-05-03T20:36:11.672Z,3.60
2019-05-03T20:38:40.362Z,3.40
2019-05-03T20:41:09.202Z,2.90
2019-05-03T20:44:02.617Z,3.27
2019-05-03T20:46:35.228Z,3.83
2019-05-03T20:49:06.026Z,3.90
2019-05-03T20:51:34.627Z,3.17
2019-05-03T20:54:04.901Z,3.40
2019-05-03T20:56:33.719Z,3.93
2019-05-03T20:59:02.393Z,3.43
2019-05-03T21:01:30.913Z,3.30
2019-05-03T21:03:59.270Z,3.40
2019-05-03T21:06:35.366Z,4.17
2019-05-03T21:08:58.259Z,2.77
2019-05-03T21:11:26.951Z,3.10
2019-05-03T21:13:55.311Z,3.00
2019-05-03T21:16:41.718Z,3.30
2019-05-03T21:19:29.250Z,3.50
2019-05-03T21:22:05.595Z,3.90
2019-05-03T21:24:45.457Z,3.50
2019-05-03T21:27:14.365Z,3.70
2019-05-03T21:29:54.871Z,3.80
2019-05-03T21:32:24.856Z,4.97
2019-05-03T21:34:55.511Z,3.43
2019-05-03T21:37:24.463Z,4.30
2019-05-03T21:39:54.848Z,3.23
2019-05-03T21:42:23.812Z,4.20
2019-05-03T21:44:52.153Z,4.13
2019-05-03T21:47:39.907Z,4.30
2019-05-03T21:50:10.307Z,3.50
2019-05-03T21:52:38.914Z,3.27
2019-05-03T21:55:07.627Z,3.90
2019-05-03T21:57:36.328Z,3.90
2019-05-03T22:00:05.876Z,4.20
2019-05-03T22:02:34.489Z,4.13
2019-05-03T22:05:02.824Z,3.73
2019-05-03T22:07:31.184Z,4.13
2019-05-03T22:09:59.825Z,3.77
2019-05-03T22:12:28.515Z,4.57
2019-05-03T22:15:05.127Z,3.50
2019-05-03T22:17:58.786Z,6.30
2019-05-03T22:20:36.768Z,4.00
2019-05-03T22:23:15.418Z,4.00
2019-05-03T22:25:44.484Z,3.50
2019-05-03T22:28:12.890Z,4.37
2019-05-03T22:30:41.605Z,4.70
2019-05-03T22:33:09.974Z,4.13
2019-05-03T22:35:38.346Z,3.57
2019-05-03T22:38:07.028Z,4.00
2019-05-03T22:40:35.523Z,3.93
2019-05-03T22:43:04.276Z,5.03
2019-05-03T22:45:32.610Z,4.20
2019-05-03T22:48:01.069Z,4.07
2019-05-03T22:50:29.722Z,4.90
2019-05-03T22:52:58.159Z,4.97
2019-05-03T22:55:26.512Z,3.43
2019-05-03T22:57:54.918Z,4.20
2019-05-03T23:00:25.018Z,4.20
2019-05-03T23:02:54.799Z,4.17
2019-05-03T23:05:23.329Z,4.00
2019-05-03T23:07:51.794Z,3.50
2019-05-03T23:10:20.274Z,3.80
2019-05-03T23:12:48.932Z,3.90
2019-05-03T23:15:17.740Z,3.90
2019-05-03T23:17:46.118Z,3.50
2019-05-03T23:20:39.830Z,3.73
2019-05-03T23:23:10.503Z,4.80
2019-05-03T23:25:38.868Z,4.43
2019-05-03T23:28:07.539Z,4.50
2019-05-03T23:30:36.252Z,3.67
2019-05-03T23:33:04.658Z,4.10
2019-05-03T23:35:34.907Z,4.23
2019-05-03T23:38:04.829Z,3.77
2019-05-03T23:40:34.749Z,4.50
2019-05-03T23:43:05.090Z,4.47
2019-05-03T23:45:34.798Z,3.30
2019-05-03T23:48:04.660Z,4.40
2019-05-03T23:50:35.357Z,4.23
2019-05-03T23:53:04.911Z,4.43
2019-05-03T23:55:45.031Z,5.17
2019-05-03T23:58:13.827Z,4.97
